Time;durP1;ratioP1;P1;durP2;ratioP2;P2;SDS_P1;SDS_P2;PMS_P1;PMS_P2;Temp;Humidity;BMP_temperature;BMP_pressure;BME280_temperature;BME280_humidity;BME280_pressure;Samples;Min_cycle;Max_cycle;Signal;HPM_P1;HPM_P2
2021/05/14 00:00:16;;;;;;;0.00;0.00;;;17.30;69.90;;;;;;4175165;28;20052;-48
2021/05/14 00:02:39;;;;;;;0.55;0.55;;;17.30;70.00;;;;;;4191685;28;20090;-46
2021/05/14 00:05:02;;;;;;;0.17;0.17;;;17.30;69.90;;;;;;4174953;28;20045;-49
2021/05/14 00:07:24;;;;;;;0.50;0.50;;;17.30;69.90;;;;;;4184394;28;20507;-44
2021/05/14 00:09:46;;;;;;;0.28;0.28;;;17.30;70.00;;;;;;4191631;28;20055;-49
2021/05/14 00:12:07;;;;;;;;;;;17.20;70.80;;;;;;4191759;28;20056;-46
2021/05/14 00:14:29;;;;;;;;;;;17.20;70.00;;;;;;4192037;28;20392;-45
2021/05/14 00:16:50;;;;;;;;;;;17.20;70.10;;;;;;4190025;28;19946;-45
2021/05/14 00:19:12;;;;;;;0.20;0.20;;;17.20;70.10;;;;;;4191316;28;20374;-45
2021/05/14 00:21:35;;;;;;;0.10;0.10;;;17.20;70.00;;;;;;4191098;28;20052;-45
2021/05/14 00:23:57;;;;;;;6.22;1.65;;;17.20;70.00;;;;;;4191228;28;20103;-49
2021/05/14 00:26:19;;;;;;;0.08;0.08;;;17.20;70.10;;;;;;4191246;28;20604;-47
2021/05/14 00:28:41;;;;;;;0.00;0.00;;;17.20;70.10;;;;;;4191230;28;20127;-47
2021/05/14 00:31:02;;;;;;;0.47;0.25;;;17.20;70.10;;;;;;4207423;28;20456;-44
2021/05/14 00:33:23;;;;;;;;;;;17.20;70.20;;;;;;4207999;28;20414;-46
2021/05/14 00:35:45;;;;;;;0.00;0.00;;;17.20;70.30;;;;;;4202669;28;20003;-45
2021/05/14 00:38:07;;;;;;;0.00;0.00;;;17.20;70.30;;;;;;4191140;28;20040;-47
2021/05/14 00:40:29;;;;;;;0.85;0.85;;;17.20;70.30;;;;;;4190948;28;20127;-47
2021/05/14 00:42:51;;;;;;;0.00;0.00;;;17.20;70.30;;;;;;4191170;28;20041;-44
2021/05/14 00:45:13;;;;;;;0.00;0.00;;;17.20;70.40;;;;;;4191361;28;20131;-46
2021/05/14 00:47:35;;;;;;;0.32;0.32;;;17.20;70.40;;;;;;4181852;28;20148;-44
2021/05/14 00:49:57;;;;;;;0.00;0.00;;;17.20;71.30;;;;;;4176245;28;20474;-45
2021/05/14 00:52:20;;;;;;;0.00;0.00;;;17.20;70.50;;;;;;4199190;28;20059;-45
2021/05/14 00:54:43;;;;;;;0.00;0.00;;;17.20;70.50;;;;;;4207742;28;20155;-46
2021/05/14 00:57:05;;;;;;;3.30;0.65;;;17.20;70.60;;;;;;4207438;28;20125;-46
2021/05/14 00:59:28;;;;;;;0.35;0.35;;;17.20;70.60;;;;;;4207667;28;20036;-46
2021/05/14 01:01:49;;;;;;;0.00;0.00;;;17.20;70.60;;;;;;4207908;28;20055;-46
2021/05/14 01:04:11;;;;;;;0.00;0.00;;;17.20;70.60;;;;;;4207684;28;20040;-46
2021/05/14 01:06:33;;;;;;;0.00;0.00;;;17.20;71.50;;;;;;4202992;28;20045;-46
2021/05/14 01:08:57;;;;;;;0.15;0.15;;;17.20;70.70;;;;;;4193399;28;20145;-45
2021/05/14 01:11:20;;;;;;;0.30;0.30;;;17.20;70.70;;;;;;4206198;28;20105;-47
2021/05/14 01:13:41;;;;;;;0.20;0.20;;;17.20;70.70;;;;;;4207661;28;20079;-46
2021/05/14 01:16:03;;;;;;;0.00;0.00;;;17.20;70.70;;;;;;4207658;28;20056;-46
2021/05/14 01:18:25;;;;;;;0.00;0.00;;;17.20;70.80;;;;;;4194378;28;20409;-46
2021/05/14 01:20:47;;;;;;;0.43;0.43;;;17.20;70.90;;;;;;4204528;28;20071;-46
2021/05/14 01:23:09;;;;;;;0.00;0.00;;;17.20;70.90;;;;;;4206792;28;20051;-45
2021/05/14 01:25:31;;;;;;;0.00;0.00;;;17.20;71.00;;;;;;4207599;28;20047;-45
2021/05/14 01:27:53;;;;;;;0.20;0.20;;;17.20;71.00;;;;;;4209892;28;20044;-48
2021/05/14 01:30:16;;;;;;;0.10;0.10;;;17.20;71.00;;;;;;4194873;28;20071;-48
2021/05/14 01:32:38;;;;;;;0.08;0.08;;;17.20;71.00;;;;;;4193831;28;20414;-49
2021/05/14 01:34:59;;;;;;;0.20;0.20;;;17.20;71.00;;;;;;4193814;28;20470;-45
2021/05/14 01:37:21;;;;;;;0.10;0.10;;;17.20;71.00;;;;;;4208640;28;20118;-46
2021/05/14 01:39:43;;;;;;;0.28;0.28;;;17.20;71.10;;;;;;4210411;28;20071;-48
2021/05/14 01:42:05;;;;;;;0.25;0.25;;;17.20;71.20;;;;;;4210669;28;20494;-45
2021/05/14 01:44:26;;;;;;;0.10;0.10;;;17.20;71.10;;;;;;4210020;28;20517;-46
2021/05/14 01:46:48;;;;;;;0.08;0.08;;;17.10;71.10;;;;;;4209975;28;20102;-44
2021/05/14 01:49:10;;;;;;;0.10;0.10;;;17.10;71.10;;;;;;4209718;28;20055;-46
2021/05/14 01:51:33;;;;;;;0.25;0.25;;;17.10;71.10;;;;;;4199661;28;20044;-46
2021/05/14 01:53:56;;;;;;;0.00;0.00;;;17.10;71.20;;;;;;4193441;28;20054;-47
2021/05/14 01:56:18;;;;;;;0.20;0.20;;;17.10;71.20;;;;;;4193458;28;20143;-48
2021/05/14 01:58:40;;;;;;;0.00;0.00;;;17.10;71.30;;;;;;4193353;28;20123;-45
2021/05/14 02:01:02;;;;;;;0.00;0.00;;;17.10;71.40;;;;;;4191929;28;20044;-45
2021/05/14 02:03:24;;;;;;;0.00;0.00;;;17.10;71.40;;;;;;4209620;28;20052;-45
2021/05/14 02:05:45;;;;;;;0.22;0.22;;;17.10;71.40;;;;;;4204693;28;20058;-46
2021/05/14 02:08:06;;;;;;;0.22;0.10;;;17.10;71.40;;;;;;4207075;28;20147;-45
2021/05/14 02:10:29;;;;;;;0.10;0.10;;;17.10;71.50;;;;;;4209783;28;20567;-46
2021/05/14 02:12:50;;;;;;;0.00;0.00;;;17.10;71.50;;;;;;4209865;28;20099;-46
2021/05/14 02:15:13;;;;;;;0.22;0.22;;;17.00;71.50;;;;;;4210050;28;20155;-46
2021/05/14 02:17:34;;;;;;;0.00;0.00;;;17.00;71.60;;;;;;4210072;28;20052;-45
2021/05/14 02:19:57;;;;;;;0.00;0.00;;;17.00;71.70;;;;;;4209178;28;20155;-48
2021/05/14 02:22:19;;;;;;;0.28;0.25;;;17.00;71.70;;;;;;4201351;28;20059;-50
2021/05/14 02:24:40;;;;;;;0.00;0.00;;;17.00;71.70;;;;;;4195143;28;20518;-50
2021/05/14 02:27:03;;;;;;;0.47;0.47;;;17.00;71.70;;;;;;4209480;28;20120;-46
2021/05/14 02:29:25;;;;;;;0.10;0.10;;;17.00;71.70;;;;;;4206783;28;20134;-48
2021/05/14 02:31:46;;;;;;;;;;;17.00;71.70;;;;;;4209587;28;20118;-45
2021/05/14 02:34:08;;;;;;;0.00;0.00;;;16.90;71.70;;;;;;4209835;28;19930;-44
2021/05/14 02:36:29;;;;;;;0.15;0.15;;;16.90;71.80;;;;;;4208387;28;20055;-49
2021/05/14 02:38:50;;;;;;;0.00;0.00;;;16.90;71.90;;;;;;4208902;28;20048;-47
2021/05/14 02:41:13;;;;;;;0.13;0.13;;;16.90;71.90;;;;;;4209555;28;20047;-47
2021/05/14 02:43:35;;;;;;;0.00;0.00;;;16.90;72.00;;;;;;4209629;28;20067;-45
2021/05/14 02:45:57;;;;;;;0.10;0.10;;;16.90;71.90;;;;;;4209397;28;20055;-47
2021/05/14 02:48:20;;;;;;;;;;;16.90;71.90;;;;;;4206388;28;20520;-47
2021/05/14 02:50:42;;;;;;;0.20;0.20;;;16.90;72.10;;;;;;4192847;28;20560;-46
2021/05/14 02:53:04;;;;;;;0.28;0.28;;;16.90;72.10;;;;;;4192751;28;20063;-46
2021/05/14 02:55:26;;;;;;;0.15;0.15;;;16.90;72.10;;;;;;4192441;28;20465;-46
2021/05/14 02:57:48;;;;;;;0.43;0.43;;;16.90;72.10;;;;;;4192470;28;20422;-44
2021/05/14 03:00:12;;;;;;;0.50;0.50;;;17.00;72.60;;;;;;4192587;28;20102;-46
2021/05/14 03:02:34;;;;;;;0.00;0.00;;;16.90;72.20;;;;;;4192546;28;20687;-46
2021/05/14 03:04:55;;;;;;;0.00;0.00;;;16.90;72.10;;;;;;4192309;28;20098;-47
2021/05/14 03:07:17;;;;;;;0.98;0.35;;;17.00;72.10;;;;;;4200647;28;20047;-44
2021/05/14 03:09:38;;;;;;;0.00;0.00;;;17.00;72.20;;;;;;4192378;28;20457;-48
2021/05/14 03:12:00;;;;;;;;;;;17.00;72.20;;;;;;4192724;28;20046;-46
2021/05/14 03:14:22;;;;;;;0.10;0.10;;;17.00;72.20;;;;;;4175266;28;20047;-46
2021/05/14 03:16:44;;;;;;;0.00;0.00;;;17.00;72.10;;;;;;4192520;28;20573;-46
2021/05/14 03:19:06;;;;;;;0.08;0.08;;;17.00;72.20;;;;;;4192006;28;20048;-47
2021/05/14 03:21:30;;;;;;;0.00;0.00;;;17.00;72.30;;;;;;4193587;28;20094;-47
2021/05/14 03:23:51;;;;;;;0.00;0.00;;;17.00;72.30;;;;;;4208652;28;20121;-49
2021/05/14 03:26:13;;;;;;;0.00;0.00;;;17.00;72.30;;;;;;4207683;28;20509;-45
2021/05/14 03:28:34;;;;;;;0.00;0.00;;;17.00;72.30;;;;;;4200946;28;20681;-46
2021/05/14 03:30:56;;;;;;;0.10;0.10;;;17.00;72.30;;;;;;4208976;28;20474;-47
2021/05/14 03:33:20;;;;;;;0.00;0.00;;;17.00;72.30;;;;;;4208737;28;20052;-45
2021/05/14 03:35:42;;;;;;;0.00;0.00;;;17.00;72.30;;;;;;4208394;28;20047;-46
2021/05/14 03:38:04;;;;;;;0.00;0.00;;;17.00;72.30;;;;;;4195210;28;20139;-47
2021/05/14 03:40:34;;;;;;;0.00;0.00;;;17.00;72.30;;;;;;4192066;28;20494;-45
2021/05/14 03:42:55;;;;;;;0.10;0.10;;;16.90;72.30;;;;;;4191426;28;20553;-46
2021/05/14 03:45:18;;;;;;;0.08;0.08;;;16.90;72.40;;;;;;4199758;28;20082;-45
2021/05/14 03:47:40;;;;;;;0.08;0.08;;;17.00;72.50;;;;;;4208800;28;20070;-45
2021/05/14 03:50:03;;;;;;;0.47;0.47;;;17.00;72.50;;;;;;4208348;28;20062;-45
2021/05/14 03:52:24;;;;;;;0.00;0.00;;;17.00;72.40;;;;;;4198101;28;21350;-44
2021/05/14 03:54:46;;;;;;;;;;;16.90;72.40;;;;;;4192228;28;20063;-45
2021/05/14 03:57:08;;;;;;;0.00;0.00;;;16.90;72.50;;;;;;4191757;28;19947;-45
2021/05/14 03:59:29;;;;;;;0.10;0.10;;;16.90;72.50;;;;;;4191180;28;20429;-49
2021/05/14 04:01:51;;;;;;;0.00;0.00;;;16.90;72.50;;;;;;4191683;28;20055;-46
2021/05/14 04:04:13;;;;;;;0.00;0.00;;;16.90;72.50;;;;;;4191502;28;20070;-46
2021/05/14 04:06:35;;;;;;;0.00;0.00;;;16.90;72.50;;;;;;4194259;28;20048;-49
2021/05/14 04:08:57;;;;;;;0.10;0.10;;;16.90;73.40;;;;;;4208269;28;20067;-46
2021/05/14 04:11:40;;;;;;;;;;;16.90;72.50;;;;;;4206713;28;20141;-45
2021/05/14 04:16:42;;;;;;;0.20;0.20;;;16.90;72.50;;;;;;4207716;28;20051;-46
2021/05/14 04:19:04;;;;;;;0.00;0.00;;;16.90;72.50;;;;;;4207867;28;20067;-47
2021/05/14 04:21:27;;;;;;;0.90;0.90;;;16.90;72.60;;;;;;4197941;28;22082;-44
2021/05/14 04:23:49;;;;;;;0.10;0.10;;;16.90;72.70;;;;;;4190972;28;20056;-45
2021/05/14 04:26:11;;;;;;;0.00;0.00;;;16.90;72.80;;;;;;4191511;28;20044;-46
2021/05/14 04:28:34;;;;;;;0.00;0.00;;;16.90;72.80;;;;;;4189637;28;20498;-44
2021/05/14 04:30:56;;;;;;;0.00;0.00;;;16.90;72.70;;;;;;4191405;28;20141;-45
2021/05/14 04:33:18;;;;;;;0.00;0.00;;;16.90;72.70;;;;;;4204508;28;20495;-44
2021/05/14 04:35:39;;;;;;;0.00;0.00;;;16.80;72.60;;;;;;4207622;28;20044;-45
2021/05/14 04:38:01;;;;;;;0.10;0.10;;;16.90;72.60;;;;;;4207666;28;20139;-45
2021/05/14 04:40:23;;;;;;;0.00;0.00;;;16.90;72.60;;;;;;4207707;28;20074;-46
2021/05/14 04:42:45;;;;;;;0.85;0.85;;;16.90;72.60;;;;;;4207567;28;20056;-54
2021/05/14 04:45:09;;;;;;;0.00;0.00;;;16.90;72.50;;;;;;4207527;28;20470;-48
2021/05/14 04:47:31;;;;;;;0.00;0.00;;;16.90;72.50;;;;;;4202872;28;20510;-47
2021/05/14 04:49:53;;;;;;;0.00;0.00;;;16.90;72.50;;;;;;4199798;28;20051;-47
2021/05/14 04:52:18;;;;;;;0.00;0.00;;;16.90;72.40;;;;;;4196837;28;20452;-47
2021/05/14 04:54:40;;;;;;;0.00;0.00;;;16.90;72.40;;;;;;4190843;28;20044;-46
2021/05/14 04:57:03;;;;;;;0.00;0.00;;;16.90;72.40;;;;;;4196946;28;20044;-46
2021/05/14 04:59:24;;;;;;;0.00;0.00;;;16.90;72.40;;;;;;4207705;28;20498;-46
2021/05/14 05:01:46;;;;;;;0.00;0.00;;;16.90;72.40;;;;;;4208271;28;20063;-48
2021/05/14 05:04:09;;;;;;;0.00;0.00;;;16.90;72.30;;;;;;4211040;28;20051;-44
2021/05/14 05:06:32;;;;;;;0.10;0.10;;;16.80;72.30;;;;;;4209774;28;20036;-47
2021/05/14 05:08:53;;;;;;;0.00;0.00;;;16.80;72.30;;;;;;4194315;28;20139;-44
2021/05/14 05:11:14;;;;;;;;;;;16.80;72.30;;;;;;4194650;28;20135;-45
2021/05/14 05:13:37;;;;;;;0.13;0.03;;;16.80;72.20;;;;;;4194131;28;20010;-44
2021/05/14 05:15:59;;;;;;;0.00;0.00;;;16.80;72.30;;;;;;4202182;28;20113;-45
2021/05/14 05:18:20;;;;;;;0.43;0.43;;;16.80;72.30;;;;;;4210504;28;20071;-46
2021/05/14 05:20:41;;;;;;;;;;;16.80;72.30;;;;;;4206852;28;20055;-44
2021/05/14 05:23:03;;;;;;;0.00;0.00;;;16.80;72.30;;;;;;4187009;28;19924;-49
2021/05/14 05:25:24;;;;;;;0.00;0.00;;;16.80;72.40;;;;;;4177396;28;20506;-48
2021/05/14 05:27:49;;;;;;;0.35;0.30;;;16.80;72.40;;;;;;4196918;28;20136;-44
2021/05/14 05:30:13;;;;;;;0.00;0.00;;;16.80;72.80;;;;;;4189764;28;20138;-45
2021/05/14 05:32:34;;;;;;;0.00;0.00;;;16.90;73.10;;;;;;4193823;28;20127;-45
2021/05/14 05:34:56;;;;;;;0.00;0.00;;;16.90;72.90;;;;;;4210742;28;20093;-46
2021/05/14 05:37:21;;;;;;;0.20;0.20;;;16.90;72.70;;;;;;4209063;28;20505;-47
2021/05/14 05:39:42;;;;;;;0.00;0.00;;;16.90;72.60;;;;;;4198525;28;20380;-45
2021/05/14 05:42:04;;;;;;;;;;;16.90;72.50;;;;;;4210986;28;20044;-44
2021/05/14 05:44:26;;;;;;;0.08;0.08;;;16.90;72.60;;;;;;4209644;28;19931;-45
2021/05/14 05:46:48;;;;;;;0.00;0.00;;;16.90;72.50;;;;;;4208731;28;20109;-45
2021/05/14 05:49:10;;;;;;;0.17;0.17;;;16.80;72.50;;;;;;4204907;28;20051;-44
2021/05/14 05:51:32;;;;;;;0.00;0.00;;;16.80;72.50;;;;;;4197544;28;20052;-44
2021/05/14 05:53:53;;;;;;;0.20;0.20;;;16.80;72.50;;;;;;4193998;28;20094;-46
2021/05/14 05:56:14;;;;;;;0.00;0.00;;;16.80;72.50;;;;;;4193549;28;20044;-45
2021/05/14 05:58:36;;;;;;;0.00;0.00;;;16.80;72.50;;;;;;4193088;28;20068;-44
2021/05/14 06:00:57;;;;;;;0.00;0.00;;;16.80;72.50;;;;;;4193513;28;20094;-46
2021/05/14 06:03:19;;;;;;;0.20;0.20;;;16.80;72.50;;;;;;4193393;28;20487;-46
2021/05/14 06:05:41;;;;;;;0.00;0.00;;;16.80;72.80;;;;;;4193133;28;20048;-47
2021/05/14 06:08:03;;;;;;;0.57;0.57;;;16.80;72.90;;;;;;4192529;28;20051;-47
2021/05/14 06:10:26;;;;;;;0.00;0.00;;;16.80;72.90;;;;;;4193260;28;20060;-47
2021/05/14 06:12:47;;;;;;;0.50;0.50;;;16.80;72.80;;;;;;4192863;28;20045;-46
2021/05/14 06:15:09;;;;;;;;;;;16.80;72.70;;;;;;4193158;28;20087;-47
2021/05/14 06:17:30;;;;;;;0.13;0.13;;;16.80;72.50;;;;;;4196711;28;20503;-44
2021/05/14 06:19:56;;;;;;;0.00;0.00;;;16.80;72.50;;;;;;4177882;28;20055;-50
2021/05/14 06:22:18;;;;;;;0.63;0.63;;;16.80;72.20;;;;;;4181515;28;20071;-49
2021/05/14 06:24:39;;;;;;;0.00;0.00;;;16.80;72.10;;;;;;4192699;28;20059;-46
2021/05/14 06:27:00;;;;;;;;;;;16.80;72.10;;;;;;4193616;28;20070;-44
2021/05/14 06:29:22;;;;;;;0.40;0.40;;;16.80;72.00;;;;;;4192529;28;19931;-46
2021/05/14 06:31:44;;;;;;;0.00;0.00;;;16.70;72.90;;;;;;4177506;28;20104;-47
2021/05/14 06:34:06;;;;;;;0.00;0.00;;;16.70;71.90;;;;;;4176341;28;20099;-45
2021/05/14 06:36:28;;;;;;;0.00;0.00;;;16.70;71.90;;;;;;4176451;28;20470;-46
2021/05/14 06:38:49;;;;;;;0.00;0.00;;;16.70;71.80;;;;;;4174905;28;20048;-49
2021/05/14 06:41:11;;;;;;;0.10;0.10;;;16.70;71.90;;;;;;4176263;28;20051;-45
2021/05/14 06:43:33;;;;;;;0.10;0.10;;;16.70;71.80;;;;;;4192604;28;20147;-45
2021/05/14 06:45:54;;;;;;;5.00;2.03;;;16.70;71.80;;;;;;4193154;28;20048;-46
2021/05/14 06:48:16;;;;;;;0.10;0.10;;;16.70;71.70;;;;;;4192456;28;20044;-47
2021/05/14 06:50:38;;;;;;;12.55;1.95;;;16.70;71.60;;;;;;4207141;28;20052;-45
2021/05/14 06:53:02;;;;;;;0.65;0.57;;;16.70;72.40;;;;;;4209465;28;20066;-48
2021/05/14 06:55:23;;;;;;;0.00;0.00;;;16.70;71.50;;;;;;4208988;28;20071;-46
2021/05/14 06:57:45;;;;;;;0.38;0.30;;;16.70;71.50;;;;;;4193362;28;20056;-45
2021/05/14 07:00:08;;;;;;;0.00;0.00;;;16.70;71.50;;;;;;4196592;28;20056;-48
2021/05/14 07:02:30;;;;;;;1.95;0.38;;;16.70;71.50;;;;;;4207777;28;20047;-47
2021/05/14 07:04:52;;;;;;;0.10;0.10;;;16.70;71.40;;;;;;4200051;28;20052;-46
2021/05/14 07:07:13;;;;;;;0.40;0.40;;;16.70;71.30;;;;;;4196445;28;20666;-49
2021/05/14 07:09:36;;;;;;;0.47;0.47;;;16.70;71.30;;;;;;4197387;28;20044;-48
2021/05/14 07:11:57;;;;;;;0.05;0.05;;;16.70;71.20;;;;;;4206053;28;20059;-48
2021/05/14 07:14:20;;;;;;;0.00;0.00;;;16.70;71.20;;;;;;4203178;28;20143;-46
2021/05/14 07:16:42;;;;;;;18.70;0.82;;;16.70;71.20;;;;;;4192033;28;20067;-45
2021/05/14 07:19:04;;;;;;;0.00;0.00;;;16.70;71.10;;;;;;4192276;28;20121;-45
2021/05/14 07:21:26;;;;;;;0.00;0.00;;;16.70;71.10;;;;;;4195591;28;20143;-47
2021/05/14 07:23:49;;;;;;;1.48;0.90;;;16.70;71.00;;;;;;4204930;28;20506;-49
2021/05/14 07:26:12;;;;;;;0.45;0.45;;;16.70;70.90;;;;;;4208703;28;20052;-45
2021/05/14 07:28:33;;;;;;;0.00;0.00;;;16.70;70.90;;;;;;4193071;28;20505;-49
2021/05/14 07:30:55;;;;;;;0.00;0.00;;;16.70;70.80;;;;;;4183333;28;20044;-45
2021/05/14 07:33:20;;;;;;;0.30;0.30;;;16.70;71.50;;;;;;4177890;28;20118;-48
2021/05/14 07:35:42;;;;;;;1.10;1.10;;;16.80;71.60;;;;;;4198274;28;20052;-45
2021/05/14 07:38:04;;;;;;;0.00;0.00;;;16.80;71.30;;;;;;4177123;28;20466;-45
2021/05/14 07:40:26;;;;;;;0.00;0.00;;;16.80;71.10;;;;;;4190584;28;20135;-45
2021/05/14 07:42:49;;;;;;;0.30;0.30;;;16.80;71.00;;;;;;4191656;28;20048;-49
2021/05/14 07:45:11;;;;;;;0.03;0.03;;;16.80;70.90;;;;;;4191420;28;20510;-47
2021/05/14 07:47:48;;;;;;;0.00;0.00;;;16.80;70.90;;;;;;4191746;28;20415;-48
2021/05/14 07:50:10;;;;;;;0.05;0.05;;;16.80;70.80;;;;;;4191815;28;20128;-46
2021/05/14 07:52:32;;;;;;;0.00;0.00;;;16.80;70.80;;;;;;4191717;28;20048;-49
2021/05/14 07:54:54;;;;;;;0.00;0.00;;;16.70;70.80;;;;;;4191610;28;20045;-48
2021/05/14 07:57:15;;;;;;;0.00;0.00;;;16.70;70.70;;;;;;4191687;28;20041;-45
2021/05/14 07:59:38;;;;;;;0.10;0.10;;;16.80;70.80;;;;;;4190896;28;20051;-44
2021/05/14 08:02:00;;;;;;;0.43;0.38;;;16.80;70.80;;;;;;4191628;28;20150;-47
2021/05/14 08:04:22;;;;;;;0.10;0.10;;;16.80;70.80;;;;;;4189351;28;20740;-49
2021/05/14 08:06:43;;;;;;;0.28;0.28;;;16.80;70.70;;;;;;4191316;28;20059;-47
2021/05/14 08:09:07;;;;;;;0.00;0.00;;;16.80;70.60;;;;;;4191475;28;20052;-45
2021/05/14 08:11:29;;;;;;;0.40;0.40;;;16.80;70.50;;;;;;4191492;28;20135;-48
2021/05/14 08:13:51;;;;;;;0.00;0.00;;;16.80;70.50;;;;;;4191338;28;20047;-45
2021/05/14 08:16:13;;;;;;;0.17;0.17;;;16.80;70.30;;;;;;4191350;28;20097;-46
2021/05/14 08:18:34;;;;;;;0.08;0.08;;;16.80;70.20;;;;;;4191474;28;20056;-47
2021/05/14 08:20:56;;;;;;;0.45;0.45;;;16.80;70.30;;;;;;4191335;28;20056;-49
2021/05/14 08:23:20;;;;;;;1.38;1.17;;;16.80;70.30;;;;;;4191102;28;20559;-45
2021/05/14 08:25:42;;;;;;;0.57;0.52;;;16.80;70.30;;;;;;4189111;28;20055;-48
2021/05/14 08:28:04;;;;;;;0.15;0.15;;;16.80;70.30;;;;;;4191563;28;20041;-45
2021/05/14 08:30:28;;;;;;;0.10;0.10;;;16.80;70.20;;;;;;4174400;28;20049;-46
2021/05/14 08:32:51;;;;;;;0.00;0.00;;;16.80;70.20;;;;;;4174833;28;20440;-46
2021/05/14 08:35:13;;;;;;;0.00;0.00;;;16.80;70.00;;;;;;4175034;28;20055;-46
2021/05/14 08:37:36;;;;;;;0.10;0.10;;;16.80;70.00;;;;;;4174225;28;20106;-47
2021/05/14 08:39:57;;;;;;;0.00;0.00;;;16.90;70.00;;;;;;4174807;28;20053;-46
2021/05/14 08:42:20;;;;;;;0.30;0.30;;;16.80;69.90;;;;;;4174833;28;20206;-44
2021/05/14 08:44:42;;;;;;;0.00;0.00;;;16.90;69.80;;;;;;4174695;28;20126;-46
2021/05/14 08:47:04;;;;;;;0.00;0.00;;;16.90;69.80;;;;;;4175095;28;20049;-50
2021/05/14 08:49:27;;;;;;;0.40;0.40;;;16.90;69.70;;;;;;4174739;28;20455;-48
2021/05/14 08:51:49;;;;;;;0.00;0.00;;;16.90;69.70;;;;;;4174555;28;20125;-50
2021/05/14 08:54:11;;;;;;;0.75;0.75;;;16.90;70.50;;;;;;4191302;28;20060;-45
2021/05/14 08:56:34;;;;;;;0.00;0.00;;;16.90;69.60;;;;;;4191027;28;20518;-48
2021/05/14 08:58:56;;;;;;;0.00;0.00;;;16.90;69.60;;;;;;4191188;28;20075;-47
2021/05/14 09:01:17;;;;;;;0.00;0.00;;;16.90;69.60;;;;;;4190942;28;20056;-45
2021/05/14 09:03:59;;;;;;;0.00;0.00;;;16.90;69.70;;;;;;4191127;28;20068;-47
2021/05/14 09:06:27;;;;;;;;;;;16.90;69.60;;;;;;4189976;28;20110;-49
2021/05/14 09:08:56;;;;;;;0.00;0.00;;;16.90;69.50;;;;;;4190596;28;19924;-48
2021/05/14 09:11:36;;;;;;;0.00;0.00;;;16.90;69.50;;;;;;4191068;28;20064;-48
2021/05/14 09:13:57;;;;;;;0.00;0.00;;;16.90;69.40;;;;;;4190750;28;20380;-47
2021/05/14 09:16:41;;;;;;;0.00;0.00;;;16.90;69.30;;;;;;4183217;28;20060;-47
2021/05/14 09:19:03;;;;;;;3.67;0.70;;;16.90;69.30;;;;;;4178822;28;20496;-49
2021/05/14 09:21:24;;;;;;;0.00;0.00;;;16.90;69.20;;;;;;4179896;28;20496;-48
2021/05/14 09:23:47;;;;;;;0.00;0.00;;;16.90;69.10;;;;;;4181882;28;20067;-47
2021/05/14 09:26:10;;;;;;;0.00;0.00;;;16.90;69.10;;;;;;4184550;28;20127;-49
2021/05/14 09:28:34;;;;;;;0.00;0.00;;;16.90;69.00;;;;;;4184931;28;20125;-49
2021/05/14 09:31:05;;;;;;;0.00;0.00;;;17.00;69.10;;;;;;4187954;28;20128;-44
2021/05/14 09:33:28;;;;;;;0.43;0.43;;;17.00;69.10;;;;;;4190255;28;20086;-45
2021/05/14 09:35:57;;;;;;;0.00;0.00;;;17.00;69.20;;;;;;4197757;28;20048;-46
2021/05/14 09:38:21;;;;;;;0.10;0.10;;;17.00;69.00;;;;;;4179300;28;20048;-49
2021/05/14 09:40:43;;;;;;;0.00;0.00;;;17.10;68.80;;;;;;4181973;28;20052;-46
2021/05/14 09:43:05;;;;;;;0.35;0.35;;;17.10;68.60;;;;;;4190320;28;20045;-44
2021/05/14 09:45:28;;;;;;;0.00;0.00;;;17.10;68.40;;;;;;4190040;28;20098;-45
2021/05/14 09:48:01;;;;;;;0.00;0.00;;;17.10;68.30;;;;;;4190467;28;20056;-45
2021/05/14 09:50:34;;;;;;;4.95;1.60;;;17.10;68.20;;;;;;4186522;28;20100;-45
2021/05/14 09:53:06;;;;;;;0.00;0.00;;;17.10;68.00;;;;;;4188219;28;20487;-45
2021/05/14 09:55:28;;;;;;;1.85;1.75;;;17.10;68.00;;;;;;4210078;28;20071;-46
2021/05/14 09:57:53;;;;;;;0.00;0.00;;;17.10;67.80;;;;;;4193322;28;20526;-47
2021/05/14 10:00:16;;;;;;;0.10;0.10;;;17.10;67.90;;;;;;4196726;28;20056;-46
2021/05/14 10:02:40;;;;;;;0.00;0.00;;;17.10;67.80;;;;;;4202166;28;20098;-45
2021/05/14 10:05:05;;;;;;;0.00;0.00;;;17.10;67.70;;;;;;4193480;28;20056;-45
2021/05/14 10:07:27;;;;;;;4.78;1.73;;;17.10;67.80;;;;;;4196902;28;20044;-46
2021/05/14 10:09:52;;;;;;;0.00;0.00;;;17.10;67.80;;;;;;4209659;28;20059;-44
2021/05/14 10:12:15;;;;;;;0.90;0.63;;;17.10;67.90;;;;;;4209403;28;20759;-46
2021/05/14 10:14:38;;;;;;;0.10;0.10;;;17.10;67.80;;;;;;4210063;28;20067;-46
2021/05/14 10:17:00;;;;;;;0.10;0.10;;;17.10;67.80;;;;;;4209564;28;20495;-45
2021/05/14 10:19:23;;;;;;;1.27;1.08;;;17.10;67.70;;;;;;4191785;28;20052;-45
2021/05/14 10:21:45;;;;;;;0.10;0.10;;;17.10;67.70;;;;;;4192789;28;20511;-45
2021/05/14 10:24:08;;;;;;;0.00;0.00;;;17.10;67.60;;;;;;4192526;28;20041;-45
2021/05/14 10:26:36;;;;;;;0.63;0.63;;;17.10;67.50;;;;;;4207716;28;20052;-46
2021/05/14 10:29:11;;;;;;;0.00;0.00;;;17.10;67.40;;;;;;4209507;28;20048;-47
2021/05/14 10:31:43;;;;;;;7.00;1.95;;;17.20;67.40;;;;;;4209264;28;20040;-44
2021/05/14 10:34:13;;;;;;;0.00;0.00;;;17.20;67.30;;;;;;4201177;28;20512;-44
2021/05/14 10:36:49;;;;;;;0.22;0.22;;;17.20;67.20;;;;;;4195151;28;20052;-44
2021/05/14 10:39:14;;;;;;;0.00;0.00;;;17.20;67.20;;;;;;4194477;28;20055;-45
2021/05/14 10:41:59;;;;;;;0.00;0.00;;;17.20;67.10;;;;;;4208989;28;20044;-45
2021/05/14 10:44:55;;;;;;;0.20;0.20;;;17.20;67.10;;;;;;4205848;28;20487;-50
2021/05/14 10:47:48;;;;;;;0.35;0.35;;;17.20;67.00;;;;;;4194456;28;20113;-51
2021/05/14 10:50:13;;;;;;;0.00;0.00;;;17.20;66.90;;;;;;4209257;28;20414;-52
2021/05/14 10:52:55;;;;;;;0.30;0.30;;;17.20;66.80;;;;;;4209030;28;20113;-49
2021/05/14 10:55:31;;;;;;;0.08;0.08;;;17.20;66.80;;;;;;4191872;28;20049;-53
2021/05/14 10:57:53;;;;;;;1.00;0.98;;;17.20;66.90;;;;;;4191966;28;20547;-50
2021/05/14 11:00:55;;;;;;;1.80;1.65;;;17.20;67.00;;;;;;4208311;28;20056;-51
2021/05/14 11:03:18;;;;;;;0.00;0.00;;;17.20;67.10;;;;;;4156789;28;20235;-46
2021/05/14 11:05:41;;;;;;;1.75;1.65;;;17.20;67.10;;;;;;4203962;28;20509;-46
2021/05/14 11:08:03;;;;;;;0.15;0.15;;;17.20;67.20;;;;;;4208639;28;20060;-47
2021/05/14 11:10:30;;;;;;;0.00;0.00;;;17.20;67.10;;;;;;4207254;28;20048;-48
2021/05/14 11:12:52;;;;;;;0.63;0.63;;;17.20;67.20;;;;;;4208811;28;20097;-46
2021/05/14 11:15:28;;;;;;;;;;;17.20;67.10;;;;;;4199544;28;20048;-48
2021/05/14 11:18:26;;;;;;;0.03;0.03;;;17.30;67.00;;;;;;4192075;28;19929;-52
2021/05/14 11:20:49;;;;;;;0.13;0.13;;;17.30;67.00;;;;;;4183333;28;20056;-50
2021/05/14 11:23:33;;;;;;;21.13;1.52;;;17.30;66.80;;;;;;4184128;28;20056;-49
2021/05/14 11:25:55;;;;;;;;;;;17.40;66.80;;;;;;4208095;28;20098;-48
2021/05/14 11:28:17;;;;;;;4.47;0.55;;;17.30;66.60;;;;;;4208865;28;20361;-48
2021/05/14 11:30:39;;;;;;;0.00;0.00;;;17.30;66.70;;;;;;4208827;28;20048;-48
2021/05/14 11:33:00;;;;;;;1.17;1.17;;;17.30;66.80;;;;;;4208552;28;20083;-47
2021/05/14 11:35:24;;;;;;;0.85;0.85;;;17.40;66.70;;;;;;4197753;28;20047;-49
2021/05/14 11:37:51;;;;;;;0.00;0.00;;;17.40;66.60;;;;;;4182926;28;20052;-49
2021/05/14 11:40:17;;;;;;;1.67;1.58;;;17.40;66.60;;;;;;4187019;28;20392;-48
2021/05/14 11:42:44;;;;;;;0.25;0.25;;;17.40;66.50;;;;;;4191783;28;20073;-46
2021/05/14 11:45:08;;;;;;;0.00;0.00;;;17.40;66.40;;;;;;4191526;28;20392;-49
2021/05/14 11:47:29;;;;;;;0.05;0.05;;;17.40;66.30;;;;;;4191765;28;20097;-47
2021/05/14 11:49:51;;;;;;;0.00;0.00;;;17.50;67.10;;;;;;4191546;28;20479;-46
2021/05/14 11:52:13;;;;;;;0.43;0.30;;;17.50;66.30;;;;;;4191665;28;20048;-47
2021/05/14 11:54:34;;;;;;;0.03;0.03;;;17.50;66.30;;;;;;4194511;28;20048;-47
2021/05/14 11:57:01;;;;;;;0.40;0.40;;;17.50;66.20;;;;;;4191751;28;20101;-48
2021/05/14 11:59:24;;;;;;;0.73;0.73;;;17.50;67.10;;;;;;4192438;28;20055;-50
2021/05/14 12:01:45;;;;;;;0.00;0.00;;;17.50;66.20;;;;;;4191502;28;20109;-49
2021/05/14 12:04:08;;;;;;;0.15;0.15;;;17.60;66.20;;;;;;4191481;28;20140;-47
2021/05/14 12:06:30;;;;;;;0.10;0.10;;;17.60;66.10;;;;;;4176402;28;20112;-48
2021/05/14 12:08:51;;;;;;;0.00;0.00;;;17.60;66.20;;;;;;4174894;28;20091;-49
2021/05/14 12:11:15;;;;;;;0.13;0.13;;;17.60;66.10;;;;;;4183626;28;20057;-49
2021/05/14 12:13:40;;;;;;;1.20;1.10;;;17.60;66.10;;;;;;4191405;28;20057;-50
2021/05/14 12:16:04;;;;;;;0.00;0.00;;;17.60;66.20;;;;;;4191481;28;20076;-50
2021/05/14 12:18:27;;;;;;;0.05;0.05;;;17.60;66.10;;;;;;4191321;28;20499;-49
2021/05/14 12:20:49;;;;;;;0.10;0.10;;;17.60;66.10;;;;;;4191093;28;20494;-48
2021/05/14 12:23:12;;;;;;;1.17;1.00;;;17.60;65.90;;;;;;4182516;28;20083;-51
2021/05/14 12:25:48;;;;;;;0.38;0.38;;;17.60;65.90;;;;;;4183823;28;20556;-47
2021/05/14 12:28:34;;;;;;;0.65;0.65;;;17.60;65.80;;;;;;4183859;28;20110;-52
2021/05/14 12:30:56;;;;;;;0.00;0.00;;;17.60;65.60;;;;;;4182308;28;20491;-51
2021/05/14 12:33:18;;;;;;;8.65;1.23;;;17.70;65.70;;;;;;4184213;28;20553;-52